createdAt,value
2019-05-20T00:01:51.884Z,22.67
2019-05-20T00:04:20.876Z,22.70
2019-05-20T00:06:49.845Z,24.20
2019-05-20T00:09:18.837Z,25.30
2019-05-20T00:11:48.416Z,23.45
2019-05-20T00:14:17.467Z,23.90
2019-05-20T00:16:46.492Z,24.83
2019-05-20T00:19:15.590Z,23.20
2019-05-20T00:21:44.543Z,26.20
2019-05-20T00:24:13.504Z,24.57
2019-05-20T00:26:42.466Z,24.83
2019-05-20T00:29:11.536Z,24.50
2019-05-20T00:31:40.592Z,24.47
2019-05-20T00:34:09.633Z,25.50
2019-05-20T00:36:38.600Z,24.77
2019-05-20T00:39:20.772Z,23.77
2019-05-20T00:41:50.170Z,25.90
2019-05-20T00:44:19.810Z,25.70
2019-05-20T00:46:48.957Z,24.75
2019-05-20T00:49:18.076Z,25.10
2019-05-20T00:51:47.218Z,26.07
2019-05-20T00:54:16.589Z,24.77
2019-05-20T00:56:46.357Z,25.17
2019-05-20T00:59:15.335Z,27.57
2019-05-20T01:01:44.394Z,25.87
2019-05-20T01:04:13.435Z,25.03
2019-05-20T01:06:42.452Z,24.97
2019-05-20T01:09:11.575Z,25.02
2019-05-20T01:11:40.546Z,26.02
2019-05-20T01:14:09.686Z,27.02
2019-05-20T01:16:38.802Z,24.87
2019-05-20T01:19:07.956Z,26.07
2019-05-20T01:21:36.938Z,25.97
2019-05-20T01:24:06.269Z,28.87
2019-05-20T01:26:35.317Z,26.93
2019-05-20T01:29:04.453Z,26.17
2019-05-20T01:31:33.433Z,27.05
2019-05-20T01:34:02.491Z,27.58
2019-05-20T01:36:31.559Z,26.55
2019-05-20T01:39:00.512Z,26.60
2019-05-20T01:41:29.493Z,28.17
2019-05-20T01:43:58.534Z,28.12
2019-05-20T01:46:27.533Z,28.75
2019-05-20T01:48:56.578Z,27.90
2019-05-20T01:51:25.596Z,29.25
2019-05-20T01:53:54.566Z,29.00
2019-05-20T01:56:23.542Z,28.42
2019-05-20T01:58:52.487Z,30.05
2019-05-20T02:01:21.668Z,30.55
2019-05-20T02:03:50.782Z,29.05
2019-05-20T02:06:19.812Z,27.90
2019-05-20T02:08:48.778Z,30.15
2019-05-20T02:11:17.759Z,31.05
2019-05-20T02:13:53.075Z,27.77
2019-05-20T02:16:22.567Z,29.95
2019-05-20T02:18:51.646Z,33.18
2019-05-20T02:21:20.865Z,27.87
2019-05-20T02:23:49.907Z,30.72
2019-05-20T02:26:18.947Z,27.93
2019-05-20T02:28:47.937Z,27.52
2019-05-20T02:31:16.992Z,30.92
2019-05-20T02:33:51.744Z,28.73
2019-05-20T02:36:16.650Z,29.48
2019-05-20T02:38:48.877Z,28.32
2019-05-20T02:41:17.976Z,31.45
2019-05-20T02:43:47.336Z,32.10
2019-05-20T02:46:16.663Z,30.43
2019-05-20T02:48:45.805Z,30.62
2019-05-20T02:51:31.556Z,30.40
2019-05-20T02:54:02.173Z,31.90
2019-05-20T02:56:31.665Z,30.70
2019-05-20T02:59:01.556Z,31.77
2019-05-20T03:01:31.012Z,31.33
2019-05-20T03:04:11.562Z,31.87
2019-05-20T03:06:31.429Z,33.83
2019-05-20T03:09:00.854Z,31.25
2019-05-20T03:11:30.218Z,30.75
2019-05-20T03:13:59.568Z,31.20
2019-05-20T03:16:28.862Z,32.05
2019-05-20T03:18:58.312Z,33.42
2019-05-20T03:21:27.670Z,31.65
2019-05-20T03:23:57.138Z,31.27
2019-05-20T03:26:26.600Z,32.63
2019-05-20T03:28:55.984Z,30.10
2019-05-20T03:31:25.519Z,31.20
2019-05-20T03:33:55.077Z,28.57
2019-05-20T03:36:24.576Z,30.48
2019-05-20T03:38:53.990Z,27.85
2019-05-20T03:41:23.479Z,29.50
2019-05-20T03:43:52.892Z,27.85
2019-05-20T03:46:22.278Z,27.98
2019-05-20T03:48:51.875Z,27.80
2019-05-20T03:51:21.321Z,26.20
2019-05-20T03:53:50.617Z,27.02
2019-05-20T03:56:20.061Z,26.35
2019-05-20T03:58:49.375Z,25.20
2019-05-20T04:01:18.740Z,26.50
2019-05-20T04:03:48.048Z,25.93
2019-05-20T04:06:17.510Z,26.10
2019-05-20T04:08:47.039Z,25.50
2019-05-20T04:11:16.420Z,25.23
2019-05-20T04:13:45.836Z,25.40
2019-05-20T04:16:15.274Z,23.50
2019-05-20T04:18:44.720Z,24.43
2019-05-20T04:21:14.127Z,23.73
2019-05-20T04:23:43.519Z,24.70
2019-05-20T04:26:12.880Z,24.27
2019-05-20T04:28:42.727Z,21.87
2019-05-20T04:31:12.056Z,25.47
2019-05-20T04:33:41.633Z,23.33
2019-05-20T04:36:10.985Z,22.63
2019-05-20T04:38:40.415Z,24.37
2019-05-20T04:41:09.860Z,24.53
2019-05-20T04:43:39.259Z,24.37
2019-05-20T04:46:08.877Z,24.30
2019-05-20T04:48:38.276Z,22.00
2019-05-20T04:51:07.653Z,23.63
2019-05-20T04:53:37.073Z,23.90
2019-05-20T04:56:06.439Z,23.57
2019-05-20T04:58:35.828Z,23.60
2019-05-20T05:01:05.290Z,25.80
2019-05-20T05:03:34.687Z,24.63
2019-05-20T05:06:04.192Z,24.70
2019-05-20T05:08:33.582Z,23.20
2019-05-20T05:11:03.009Z,23.90
2019-05-20T05:13:32.388Z,24.80
2019-05-20T05:16:01.846Z,25.03
2019-05-20T05:18:31.311Z,26.50
2019-05-20T05:21:00.852Z,25.03
2019-05-20T05:23:30.351Z,25.07
2019-05-20T05:25:59.806Z,25.13
2019-05-20T05:28:29.149Z,23.17
2019-05-20T05:30:58.538Z,25.87
2019-05-20T05:33:27.987Z,26.23
2019-05-20T05:35:57.467Z,25.40
2019-05-20T05:38:26.879Z,24.87
2019-05-20T05:40:56.237Z,24.47
2019-05-20T05:43:25.581Z,26.30
2019-05-20T05:45:54.917Z,26.20
2019-05-20T05:48:24.429Z,24.77
2019-05-20T05:50:53.903Z,23.60
2019-05-20T05:53:23.354Z,25.10
2019-05-20T05:55:52.817Z,24.77
2019-05-20T05:58:22.303Z,24.10
2019-05-20T06:00:51.802Z,24.27
2019-05-20T06:03:21.214Z,22.23
2019-05-20T06:05:50.741Z,20.60
2019-05-20T06:08:20.269Z,23.00
2019-05-20T06:10:49.725Z,22.80
2019-05-20T06:13:18.974Z,22.97
2019-05-20T06:15:48.333Z,21.50
2019-05-20T06:18:17.767Z,20.70
2019-05-20T06:20:47.182Z,19.07
2019-05-20T06:23:16.574Z,19.13
2019-05-20T06:25:45.832Z,20.23
2019-05-20T06:28:15.857Z,21.30
2019-05-20T06:30:46.187Z,21.47
2019-05-20T06:33:15.547Z,20.77
2019-05-20T06:35:44.975Z,30.60
2019-05-20T06:38:20.641Z,20.57
2019-05-20T06:40:50.065Z,18.10
2019-05-20T06:43:19.423Z,20.33
2019-05-20T06:45:48.957Z,31.97
2019-05-20T06:48:18.241Z,19.50
2019-05-20T06:50:47.554Z,19.40
2019-05-20T06:53:16.994Z,21.00
2019-05-20T06:55:46.503Z,21.90
2019-05-20T06:58:15.899Z,25.50
2019-05-20T07:00:45.479Z,26.37
2019-05-20T07:03:14.778Z,19.17
2019-05-20T07:05:44.428Z,17.73
2019-05-20T07:08:13.910Z,25.73
2019-05-20T07:10:44.535Z,16.27
2019-05-20T07:13:16.152Z,15.60
2019-05-20T07:15:45.023Z,27.93
2019-05-20T07:18:14.528Z,19.23
2019-05-20T07:20:43.851Z,16.00
2019-05-20T07:23:13.193Z,23.77
2019-05-20T07:25:42.539Z,17.00
2019-05-20T07:28:11.880Z,16.17
2019-05-20T07:30:41.274Z,16.10
2019-05-20T07:33:10.687Z,36.33
2019-05-20T07:35:40.050Z,17.57
2019-05-20T07:38:09.367Z,17.10
2019-05-20T07:40:38.861Z,14.20
2019-05-20T07:43:08.173Z,13.40
2019-05-20T07:45:37.793Z,11.83
2019-05-20T07:48:07.545Z,14.03
2019-05-20T07:50:39.715Z,12.67
2019-05-20T07:53:12.008Z,14.00
2019-05-20T07:55:47.769Z,13.03
2019-05-20T07:58:19.364Z,12.53
2019-05-20T08:00:48.717Z,11.77
2019-05-20T08:03:18.067Z,13.10
2019-05-20T08:05:47.449Z,12.23
2019-05-20T08:08:17.529Z,11.70
2019-05-20T08:10:47.018Z,12.37
2019-05-20T08:13:16.489Z,11.10
2019-05-20T08:15:45.887Z,10.90
2019-05-20T08:18:15.334Z,12.43
2019-05-20T08:20:44.735Z,11.00
2019-05-20T08:23:14.868Z,11.57
2019-05-20T08:25:44.313Z,12.00
2019-05-20T08:28:13.675Z,11.33
2019-05-20T08:30:43.138Z,11.90
2019-05-20T08:33:12.630Z,11.13
2019-05-20T08:35:42.001Z,12.07
2019-05-20T08:38:11.488Z,11.17
2019-05-20T08:40:42.529Z,12.13
2019-05-20T08:43:12.143Z,12.47
2019-05-20T08:45:41.565Z,11.07
2019-05-20T08:48:10.768Z,9.53
2019-05-20T08:50:40.057Z,10.00
2019-05-20T08:53:09.562Z,10.73
2019-05-20T08:55:38.880Z,11.80
2019-05-20T08:58:08.061Z,10.53
2019-05-20T09:00:37.444Z,10.20
2019-05-20T09:03:06.812Z,10.93
2019-05-20T09:05:36.171Z,10.33
2019-05-20T09:08:05.459Z,11.70
2019-05-20T09:10:39.151Z,9.93
2019-05-20T09:13:06.452Z,10.87
2019-05-20T09:15:35.793Z,11.70
2019-05-20T09:18:05.158Z,9.97
2019-05-20T09:20:34.494Z,8.60
2019-05-20T09:23:03.692Z,10.23
2019-05-20T09:25:33.541Z,8.33
2019-05-20T09:28:02.848Z,10.00
2019-05-20T09:30:32.122Z,9.20
2019-05-20T09:33:01.426Z,10.00
2019-05-20T09:35:30.748Z,9.83
2019-05-20T09:38:00.011Z,9.13
2019-05-20T09:40:37.350Z,9.07
2019-05-20T09:43:06.978Z,8.90
2019-05-20T09:45:36.496Z,9.70
2019-05-20T09:48:06.849Z,9.50
2019-05-20T09:50:36.399Z,10.00
2019-05-20T09:53:07.177Z,10.10
2019-05-20T09:55:36.850Z,7.87
2019-05-20T09:58:06.951Z,7.07
2019-05-20T10:00:36.487Z,6.70
2019-05-20T10:03:07.439Z,7.17
2019-05-20T10:05:37.869Z,6.53
2019-05-20T10:08:07.594Z,6.30
2019-05-20T10:10:37.204Z,7.00
2019-05-20T10:13:07.045Z,7.50
2019-05-20T10:15:37.181Z,8.00
2019-05-20T10:18:06.571Z,8.70
2019-05-20T10:20:35.936Z,7.90
2019-05-20T10:23:05.343Z,8.50
2019-05-20T10:25:34.774Z,7.47
2019-05-20T10:28:04.189Z,8.17
2019-05-20T10:30:33.438Z,9.40
2019-05-20T10:33:02.868Z,8.63
2019-05-20T10:35:32.193Z,9.33
2019-05-20T10:38:01.539Z,9.30
2019-05-20T10:40:30.905Z,8.10
2019-05-20T10:43:00.332Z,8.43
2019-05-20T10:45:29.641Z,8.63
2019-05-20T10:47:58.942Z,7.90
2019-05-20T10:50:28.717Z,7.07
2019-05-20T10:52:58.308Z,7.20
2019-05-20T10:55:27.636Z,6.90
2019-05-20T10:57:57.119Z,7.37
2019-05-20T11:00:26.666Z,7.50
2019-05-20T11:02:56.046Z,7.87
2019-05-20T11:05:25.547Z,7.77
2019-05-20T11:07:55.101Z,7.27
2019-05-20T11:10:24.649Z,8.40
2019-05-20T11:12:54.072Z,6.40
2019-05-20T11:15:23.972Z,7.10
2019-05-20T11:17:53.480Z,7.07
2019-05-20T11:20:23.081Z,7.93
2019-05-20T11:22:52.806Z,8.70
2019-05-20T11:25:22.438Z,7.40
2019-05-20T11:27:52.097Z,7.10
2019-05-20T11:30:21.621Z,6.87
2019-05-20T11:32:51.274Z,9.40
2019-05-20T11:35:20.762Z,9.23
2019-05-20T11:37:50.287Z,8.30
2019-05-20T11:40:19.903Z,8.43
2019-05-20T11:42:49.387Z,8.13
2019-05-20T11:45:19.042Z,8.63
2019-05-20T11:47:48.400Z,7.80
2019-05-20T11:50:17.960Z,8.47
2019-05-20T11:52:47.390Z,8.83
2019-05-20T11:55:16.820Z,8.40
2019-05-20T11:57:46.299Z,8.57
2019-05-20T12:00:16.083Z,9.37
2019-05-20T12:02:45.594Z,9.87
2019-05-20T12:05:15.150Z,9.73
2019-05-20T12:07:44.583Z,9.23
2019-05-20T12:10:14.384Z,9.50
2019-05-20T12:12:46.042Z,9.00
2019-05-20T12:15:15.237Z,10.67
2019-05-20T12:17:44.789Z,10.73
2019-05-20T12:20:15.238Z,10.67
2019-05-20T12:22:44.747Z,10.03
2019-05-20T12:25:14.860Z,10.80
2019-05-20T12:27:44.374Z,9.50
2019-05-20T12:30:13.852Z,10.47
2019-05-20T12:32:43.310Z,9.43
2019-05-20T12:35:12.887Z,9.70
2019-05-20T12:37:45.651Z,9.60
2019-05-20T12:40:14.151Z,9.70
2019-05-20T12:42:43.685Z,10.20
2019-05-20T12:45:13.404Z,8.97
2019-05-20T12:47:42.880Z,8.77
2019-05-20T12:50:12.619Z,9.87
2019-05-20T12:52:42.050Z,10.00
2019-05-20T12:55:12.477Z,10.63
2019-05-20T12:57:42.017Z,10.33
2019-05-20T13:00:12.992Z,10.77
2019-05-20T13:02:42.487Z,10.13
2019-05-20T13:05:12.436Z,11.17
2019-05-20T13:07:41.938Z,9.70
2019-05-20T13:10:28.292Z,10.53
2019-05-20T13:12:43.054Z,9.93
2019-05-20T13:15:12.954Z,10.80
2019-05-20T13:17:44.716Z,10.13
2019-05-20T13:20:13.978Z,9.93
2019-05-20T13:22:43.507Z,9.80
2019-05-20T13:25:13.417Z,10.37
2019-05-20T13:27:42.863Z,10.17
2019-05-20T13:30:12.521Z,10.03
2019-05-20T13:32:41.856Z,9.97
2019-05-20T13:35:11.518Z,9.37
2019-05-20T13:37:41.012Z,10.13
2019-05-20T13:40:10.820Z,9.10
2019-05-20T13:42:40.355Z,10.13
2019-05-20T13:45:10.860Z,10.80
2019-05-20T13:47:40.884Z,9.83
2019-05-20T13:50:11.205Z,10.30
2019-05-20T13:52:40.667Z,11.47
2019-05-20T13:55:10.864Z,11.03
2019-05-20T13:57:40.601Z,10.47
2019-05-20T14:00:10.498Z,11.07
2019-05-20T14:02:40.065Z,11.30
2019-05-20T14:05:09.659Z,11.20
2019-05-20T14:07:39.091Z,11.90
2019-05-20T14:10:09.173Z,11.60
2019-05-20T14:12:38.654Z,12.70
2019-05-20T14:15:08.219Z,11.13
2019-05-20T14:17:37.736Z,13.07
2019-05-20T14:20:08.852Z,11.90
2019-05-20T14:22:38.644Z,12.20
2019-05-20T14:25:09.733Z,12.37
2019-05-20T14:27:39.490Z,12.93
2019-05-20T14:30:10.209Z,13.07
2019-05-20T14:32:39.807Z,14.40
2019-05-20T14:35:10.361Z,13.33
2019-05-20T14:37:42.768Z,13.97
2019-05-20T14:40:12.843Z,13.70
2019-05-20T14:42:42.347Z,14.30
2019-05-20T14:45:11.713Z,15.53
2019-05-20T14:47:40.783Z,17.77
2019-05-20T14:50:10.411Z,18.00
2019-05-20T14:52:40.507Z,17.87
2019-05-20T14:55:09.843Z,18.47
2019-05-20T14:57:38.826Z,17.50
2019-05-20T15:00:09.459Z,17.93
2019-05-20T15:02:39.202Z,20.37
2019-05-20T15:05:08.845Z,17.67
2019-05-20T15:07:38.113Z,20.10
2019-05-20T15:10:08.742Z,20.83
2019-05-20T15:12:38.416Z,19.83
2019-05-20T15:15:08.817Z,21.00
2019-05-20T15:17:38.127Z,10.40
2019-05-20T15:20:07.646Z,9.73
2019-05-20T15:22:37.056Z,9.70
2019-05-20T15:25:06.549Z,9.80
2019-05-20T15:27:35.838Z,9.10
2019-05-20T15:30:05.902Z,11.57
2019-05-20T15:32:35.169Z,17.80
2019-05-20T15:35:04.736Z,15.80
2019-05-20T15:37:34.091Z,17.93
2019-05-20T15:40:03.493Z,21.07
2019-05-20T15:42:32.859Z,22.07
2019-05-20T15:45:02.326Z,24.60
2019-05-20T15:47:31.600Z,25.87
2019-05-20T15:50:00.996Z,25.60
2019-05-20T15:52:30.379Z,26.33
2019-05-20T15:54:59.739Z,22.00
2019-05-20T15:57:29.243Z,19.07
2019-05-20T15:59:58.679Z,16.17
2019-05-20T16:02:28.040Z,14.80
2019-05-20T16:04:57.440Z,18.20
2019-05-20T16:07:26.702Z,19.77
2019-05-20T16:09:56.102Z,18.93
2019-05-20T16:12:25.461Z,19.70
2019-05-20T16:14:54.682Z,18.20
2019-05-20T16:17:24.037Z,19.90
2019-05-20T16:19:53.413Z,20.40
2019-05-20T16:22:22.765Z,21.33
2019-05-20T16:24:52.207Z,18.93
2019-05-20T16:27:21.653Z,19.80
2019-05-20T16:30:05.634Z,22.30
2019-05-20T16:32:22.286Z,20.03
2019-05-20T16:34:51.709Z,20.70
2019-05-20T16:37:20.995Z,23.33
2019-05-20T16:39:50.393Z,20.23
2019-05-20T16:42:20.613Z,19.27
2019-05-20T16:44:49.960Z,17.73
2019-05-20T16:47:19.362Z,20.07
2019-05-20T16:49:48.739Z,19.40
2019-05-20T16:52:18.013Z,19.47
2019-05-20T16:54:47.275Z,18.73
2019-05-20T16:57:16.815Z,20.90
2019-05-20T16:59:46.300Z,19.33
2019-05-20T17:02:15.823Z,19.90
2019-05-20T17:04:45.231Z,18.87
2019-05-20T17:07:14.732Z,19.93
2019-05-20T17:09:44.102Z,20.73
2019-05-20T17:12:13.475Z,21.17
2019-05-20T17:14:42.733Z,20.30
2019-05-20T17:17:12.424Z,22.00
2019-05-20T17:19:41.962Z,25.43
2019-05-20T17:22:11.273Z,24.40
2019-05-20T17:24:40.958Z,22.83
2019-05-20T17:27:10.447Z,23.30
2019-05-20T17:29:39.802Z,23.20
2019-05-20T17:32:09.158Z,21.00
2019-05-20T17:34:38.547Z,21.73
2019-05-20T17:37:08.019Z,20.30
2019-05-20T17:39:37.470Z,20.47
2019-05-20T17:42:07.350Z,20.40
2019-05-20T17:44:37.044Z,19.23
2019-05-20T17:47:06.623Z,20.47
2019-05-20T17:49:36.082Z,17.53
2019-05-20T17:52:05.434Z,19.50
2019-05-20T17:54:34.868Z,19.10
2019-05-20T17:57:04.435Z,19.50
2019-05-20T17:59:33.843Z,19.90
2019-05-20T18:02:04.896Z,18.73
2019-05-20T18:04:34.316Z,20.70
2019-05-20T18:07:03.690Z,18.80
2019-05-20T18:09:34.797Z,19.87
2019-05-20T18:12:04.180Z,19.50
2019-05-20T18:14:33.502Z,20.13
2019-05-20T18:17:02.983Z,19.90
2019-05-20T18:19:32.333Z,18.37
2019-05-20T18:22:01.619Z,20.33
2019-05-20T18:24:31.336Z,23.57
2019-05-20T18:27:00.741Z,20.53
2019-05-20T18:29:30.247Z,23.40
2019-05-20T18:31:59.704Z,21.53
2019-05-20T18:34:29.167Z,22.20
2019-05-20T18:36:58.472Z,23.07
2019-05-20T18:39:27.907Z,23.37
2019-05-20T18:41:57.550Z,25.27
2019-05-20T18:44:26.887Z,23.53
2019-05-20T18:46:56.388Z,26.87
2019-05-20T18:49:26.032Z,29.07
2019-05-20T18:51:56.125Z,27.63
2019-05-20T18:54:25.835Z,30.37
2019-05-20T18:56:55.146Z,30.00
2019-05-20T18:59:24.599Z,29.87
2019-05-20T19:02:04.522Z,29.70
2019-05-20T19:04:27.103Z,31.17
2019-05-20T19:06:56.654Z,32.63
2019-05-20T19:09:27.980Z,33.07
2019-05-20T19:11:57.533Z,31.97
2019-05-20T19:14:27.202Z,34.97
2019-05-20T19:16:56.640Z,31.40
2019-05-20T19:19:26.228Z,33.67
2019-05-20T19:21:55.948Z,33.57
2019-05-20T19:24:25.235Z,30.53
2019-05-20T19:26:55.072Z,33.70
2019-05-20T19:29:24.435Z,33.07
2019-05-20T19:32:01.570Z,32.83
2019-05-20T19:34:25.050Z,31.60
2019-05-20T19:36:54.441Z,33.83
2019-05-20T19:39:23.903Z,32.90
2019-05-20T19:41:53.377Z,31.83
2019-05-20T19:44:22.883Z,34.97
2019-05-20T19:46:52.283Z,29.93
2019-05-20T19:49:21.618Z,30.60
2019-05-20T19:51:50.984Z,29.17
2019-05-20T19:54:20.351Z,29.80
2019-05-20T19:56:49.799Z,29.13
2019-05-20T19:59:19.214Z,28.70
2019-05-20T20:01:48.786Z,28.07
2019-05-20T20:04:18.121Z,26.03
2019-05-20T20:06:47.559Z,25.53
2019-05-20T20:09:17.053Z,26.17
2019-05-20T20:11:46.527Z,27.03
2019-05-20T20:14:16.141Z,27.27
2019-05-20T20:16:45.481Z,29.83
2019-05-20T20:19:15.055Z,28.97
2019-05-20T20:21:46.639Z,30.50
2019-05-20T20:24:16.104Z,31.10
2019-05-20T20:26:45.682Z,31.87
2019-05-20T20:29:15.249Z,31.43
2019-05-20T20:31:44.843Z,32.53
2019-05-20T20:34:16.359Z,33.87
2019-05-20T20:36:45.709Z,32.87
2019-05-20T20:39:16.241Z,33.37
2019-05-20T20:41:45.591Z,30.73
2019-05-20T20:44:15.014Z,33.50
2019-05-20T20:46:44.584Z,32.67
2019-05-20T20:49:14.903Z,31.53
2019-05-20T20:51:44.455Z,29.73
2019-05-20T20:54:13.830Z,29.47
2019-05-20T20:56:43.487Z,28.90
2019-05-20T20:59:12.859Z,26.23
2019-05-20T21:01:42.308Z,29.00
2019-05-20T21:04:11.686Z,24.93
2019-05-20T21:06:41.072Z,23.30
2019-05-20T21:09:10.476Z,23.83
2019-05-20T21:11:39.732Z,23.77
2019-05-20T21:14:09.134Z,24.10
2019-05-20T21:16:38.425Z,24.53
2019-05-20T21:19:07.768Z,24.50
2019-05-20T21:21:37.217Z,25.97
2019-05-20T21:24:06.724Z,24.43
2019-05-20T21:26:36.046Z,25.97
2019-05-20T21:29:05.633Z,25.53
2019-05-20T21:31:35.040Z,26.40
2019-05-20T21:34:04.466Z,25.50
2019-05-20T21:36:46.533Z,25.17
2019-05-20T21:39:05.989Z,26.03
2019-05-20T21:41:35.595Z,26.40
2019-05-20T21:44:05.092Z,25.50
2019-05-20T21:46:34.297Z,26.20
2019-05-20T21:49:03.672Z,25.23
2019-05-20T21:51:33.047Z,25.10
2019-05-20T21:54:02.419Z,24.47
2019-05-20T21:56:31.814Z,27.03
2019-05-20T21:59:01.299Z,25.20
2019-05-20T22:01:30.688Z,25.07
2019-05-20T22:04:00.051Z,26.13
2019-05-20T22:06:29.440Z,25.30
2019-05-20T22:08:58.873Z,25.07
2019-05-20T22:11:28.332Z,24.67
2019-05-20T22:13:57.696Z,23.57
2019-05-20T22:16:29.960Z,25.63
2019-05-20T22:18:59.362Z,26.60
2019-05-20T22:21:34.353Z,26.13
2019-05-20T22:24:05.653Z,26.87
2019-05-20T22:26:35.005Z,26.40
2019-05-20T22:29:04.364Z,26.90
2019-05-20T22:31:50.349Z,25.60
2019-05-20T22:34:04.760Z,26.95
2019-05-20T22:36:34.132Z,26.95
2019-05-20T22:39:04.989Z,29.70
2019-05-20T22:41:34.334Z,28.42
2019-05-20T22:44:03.730Z,27.65
2019-05-20T22:46:33.814Z,28.80
2019-05-20T22:49:03.223Z,31.00
2019-05-20T22:51:32.669Z,30.32
2019-05-20T22:54:02.004Z,31.02
2019-05-20T22:56:31.453Z,30.37
2019-05-20T22:59:00.794Z,27.98
2019-05-20T23:01:30.098Z,30.25
2019-05-20T23:03:59.524Z,31.63
2019-05-20T23:06:28.965Z,35.00
2019-05-20T23:08:58.403Z,33.85
2019-05-20T23:11:28.839Z,32.35
2019-05-20T23:13:58.169Z,32.88
2019-05-20T23:16:27.389Z,32.58
2019-05-20T23:18:56.902Z,30.62
2019-05-20T23:21:26.273Z,31.73
2019-05-20T23:23:55.608Z,31.12
2019-05-20T23:26:25.100Z,33.88
2019-05-20T23:28:54.371Z,32.73
2019-05-20T23:31:23.586Z,33.40
2019-05-20T23:33:52.829Z,34.03
2019-05-20T23:36:22.100Z,36.60
2019-05-20T23:38:51.592Z,35.78
2019-05-20T23:41:20.914Z,34.58
2019-05-20T23:43:50.253Z,35.92
2019-05-20T23:46:19.647Z,37.17
2019-05-20T23:48:49.069Z,37.08
2019-05-20T23:51:18.387Z,32.95
2019-05-20T23:53:47.846Z,37.40
2019-05-20T23:56:17.226Z,37.67
2019-05-20T23:58:46.660Z,39.98
